sensor_id;sensor_type;location;lat;lon;timestamp;pressure;altitude;pressure_sealevel;temperature;humidity
51468;BME280;37545;45.302;-122.946;2022-12-18T00:00:10;101316.34;;;6.85;54.37
51468;BME280;37545;45.302;-122.946;2022-12-18T00:02:39;101308.28;;;6.79;55.06
51468;BME280;37545;45.302;-122.946;2022-12-18T00:05:08;101323.06;;;6.67;55.77
51468;BME280;37545;45.302;-122.946;2022-12-18T00:07:36;101320.63;;;6.54;56.88
51468;BME280;37545;45.302;-122.946;2022-12-18T00:10:06;101318.44;;;6.45;56.77
51468;BME280;37545;45.302;-122.946;2022-12-18T00:12:35;101315.34;;;6.36;57.14
51468;BME280;37545;45.302;-122.946;2022-12-18T00:15:04;101317.66;;;6.31;58.13
51468;BME280;37545;45.302;-122.946;2022-12-18T00:17:35;101317.41;;;6.26;57.80
51468;BME280;37545;45.302;-122.946;2022-12-18T00:20:04;101321.41;;;6.21;58.21
51468;BME280;37545;45.302;-122.946;2022-12-18T00:22:33;101317.63;;;6.15;58.06
51468;BME280;37545;45.302;-122.946;2022-12-18T00:25:02;101307.84;;;6.09;59.12
51468;BME280;37545;45.302;-122.946;2022-12-18T00:27:30;101315.31;;;6.04;61.85
51468;BME280;37545;45.302;-122.946;2022-12-18T00:29:59;101313.38;;;6.00;61.37
51468;BME280;37545;45.302;-122.946;2022-12-18T00:32:28;101310.28;;;5.91;62.80
51468;BME280;37545;45.302;-122.946;2022-12-18T00:34:58;101311.22;;;5.93;72.04
51468;BME280;37545;45.302;-122.946;2022-12-18T00:37:27;101310.88;;;5.87;70.19
51468;BME280;37545;45.302;-122.946;2022-12-18T00:39:55;101304.94;;;5.73;69.00
51468;BME280;37545;45.302;-122.946;2022-12-18T00:42:24;101293.88;;;5.59;68.01
51468;BME280;37545;45.302;-122.946;2022-12-18T00:45:10;101296.47;;;5.59;67.43
51468;BME280;37545;45.302;-122.946;2022-12-18T00:47:38;101301.38;;;5.56;67.85
51468;BME280;37545;45.302;-122.946;2022-12-18T00:50:09;101299.19;;;5.48;68.25
51468;BME280;37545;45.302;-122.946;2022-12-18T00:52:38;101296.97;;;5.39;69.74
51468;BME280;37545;45.302;-122.946;2022-12-18T00:55:09;101296.75;;;5.36;69.35
51468;BME280;37545;45.302;-122.946;2022-12-18T00:57:38;101302.88;;;5.38;69.83
51468;BME280;37545;45.302;-122.946;2022-12-18T01:00:09;101290.03;;;5.38;68.94
51468;BME280;37545;45.302;-122.946;2022-12-18T01:02:38;101291.91;;;5.40;70.84
51468;BME280;37545;45.302;-122.946;2022-12-18T01:05:09;101288.19;;;5.35;68.62
51468;BME280;37545;45.302;-122.946;2022-12-18T01:07:38;101287.31;;;5.35;69.55
51468;BME280;37545;45.302;-122.946;2022-12-18T01:10:09;101293.31;;;5.35;70.12
51468;BME280;37545;45.302;-122.946;2022-12-18T01:12:38;101286.94;;;5.29;70.14
51468;BME280;37545;45.302;-122.946;2022-12-18T01:15:08;101289.66;;;5.17;69.26
51468;BME280;37545;45.302;-122.946;2022-12-18T01:17:37;101298.94;;;5.15;69.56
51468;BME280;37545;45.302;-122.946;2022-12-18T01:20:07;101277.38;;;5.11;68.71
51468;BME280;37545;45.302;-122.946;2022-12-18T01:22:38;101298.25;;;5.17;69.17
51468;BME280;37545;45.302;-122.946;2022-12-18T01:25:08;101287.69;;;5.13;69.13
51468;BME280;37545;45.302;-122.946;2022-12-18T01:27:37;101295.13;;;5.08;68.37
51468;BME280;37545;45.302;-122.946;2022-12-18T01:30:06;101294.25;;;5.08;68.63
51468;BME280;37545;45.302;-122.946;2022-12-18T01:32:35;101299.47;;;5.09;68.89
51468;BME280;37545;45.302;-122.946;2022-12-18T01:35:04;101294.06;;;5.04;68.99
51468;BME280;37545;45.302;-122.946;2022-12-18T01:37:33;101293.19;;;5.04;70.36
51468;BME280;37545;45.302;-122.946;2022-12-18T01:40:04;101292.50;;;5.07;70.13
51468;BME280;37545;45.302;-122.946;2022-12-18T01:42:33;101297.69;;;5.08;68.69
51468;BME280;37545;45.302;-122.946;2022-12-18T01:45:05;101291.78;;;5.09;67.55
51468;BME280;37545;45.302;-122.946;2022-12-18T01:47:39;101282.28;;;5.08;67.86
51468;BME280;37545;45.302;-122.946;2022-12-18T01:50:12;101285.25;;;5.14;67.61
51468;BME280;37545;45.302;-122.946;2022-12-18T01:52:42;101283.66;;;5.16;67.06
51468;BME280;37545;45.302;-122.946;2022-12-18T01:55:16;101284.44;;;5.15;69.23
51468;BME280;37545;45.302;-122.946;2022-12-18T01:57:47;101287.97;;;5.02;69.46
51468;BME280;37545;45.302;-122.946;2022-12-18T02:00:19;101289.25;;;4.96;68.10
51468;BME280;37545;45.302;-122.946;2022-12-18T02:02:48;101289.97;;;4.93;68.67
51468;BME280;37545;45.302;-122.946;2022-12-18T02:05:19;101293.41;;;4.94;70.34
51468;BME280;37545;45.302;-122.946;2022-12-18T02:07:58;101292.09;;;5.00;70.49
51468;BME280;37545;45.302;-122.946;2022-12-18T02:10:36;101290.16;;;4.96;71.25
51468;BME280;37545;45.302;-122.946;2022-12-18T02:13:14;101293.94;;;4.88;69.37
51468;BME280;37545;45.302;-122.946;2022-12-18T02:15:54;101285.16;;;4.85;68.91
51468;BME280;37545;45.302;-122.946;2022-12-18T02:18:28;101297.22;;;4.86;68.57
51468;BME280;37545;45.302;-122.946;2022-12-18T02:21:04;101288.72;;;4.87;68.73
51468;BME280;37545;45.302;-122.946;2022-12-18T02:23:50;101284.56;;;4.89;69.91
51468;BME280;37545;45.302;-122.946;2022-12-18T02:26:26;101292.44;;;4.92;69.25
51468;BME280;37545;45.302;-122.946;2022-12-18T02:29:00;101292.63;;;4.95;69.67
51468;BME280;37545;45.302;-122.946;2022-12-18T02:31:34;101296.25;;;4.98;69.27
51468;BME280;37545;45.302;-122.946;2022-12-18T02:34:06;101291.13;;;4.98;68.84
51468;BME280;37545;45.302;-122.946;2022-12-18T02:36:39;101297.13;;;4.99;69.43
51468;BME280;37545;45.302;-122.946;2022-12-18T02:39:09;101286.28;;;5.03;69.12
51468;BME280;37545;45.302;-122.946;2022-12-18T02:41:40;101287.97;;;5.02;68.52
51468;BME280;37545;45.302;-122.946;2022-12-18T02:44:11;101287.09;;;5.02;68.75
51468;BME280;37545;45.302;-122.946;2022-12-18T02:46:50;101292.38;;;5.05;70.56
51468;BME280;37545;45.302;-122.946;2022-12-18T02:49:33;101290.81;;;5.07;69.25
51468;BME280;37545;45.302;-122.946;2022-12-18T02:52:09;101285.41;;;5.02;69.60
51468;BME280;37545;45.302;-122.946;2022-12-18T02:54:54;101273.97;;;4.97;71.70
51468;BME280;37545;45.302;-122.946;2022-12-18T02:57:33;101271.50;;;4.99;72.17
51468;BME280;37545;45.302;-122.946;2022-12-18T03:00:05;101278.56;;;5.03;72.16
51468;BME280;37545;45.302;-122.946;2022-12-18T03:02:38;101283.88;;;5.06;71.39
51468;BME280;37545;45.302;-122.946;2022-12-18T03:05:13;101273.81;;;5.09;70.23
51468;BME280;37545;45.302;-122.946;2022-12-18T03:07:45;101276.47;;;5.11;70.29
51468;BME280;37545;45.302;-122.946;2022-12-18T03:10:19;101268.88;;;5.12;70.46
51468;BME280;37545;45.302;-122.946;2022-12-18T03:12:54;101274.16;;;5.15;70.40
51468;BME280;37545;45.302;-122.946;2022-12-18T03:15:27;101273.41;;;5.16;70.79
51468;BME280;37545;45.302;-122.946;2022-12-18T03:18:02;101276.06;;;5.18;70.45
51468;BME280;37545;45.302;-122.946;2022-12-18T03:20:34;101274.38;;;5.18;70.09
51468;BME280;37545;45.302;-122.946;2022-12-18T03:23:08;101274.28;;;5.17;69.12
51468;BME280;37545;45.302;-122.946;2022-12-18T03:25:40;101277.72;;;5.17;69.17
51468;BME280;37545;45.302;-122.946;2022-12-18T03:28:14;101274.38;;;5.18;69.20
51468;BME280;37545;45.302;-122.946;2022-12-18T03:30:45;101280.50;;;5.20;69.27
51468;BME280;37545;45.302;-122.946;2022-12-18T03:33:17;101283.06;;;5.20;68.17
51468;BME280;37545;45.302;-122.946;2022-12-18T03:35:47;101272.78;;;5.20;68.37
51468;BME280;37545;45.302;-122.946;2022-12-18T03:38:16;101271.00;;;5.19;68.14
51468;BME280;37545;45.302;-122.946;2022-12-18T03:40:52;101273.56;;;5.19;68.25
51468;BME280;37545;45.302;-122.946;2022-12-18T03:43:34;101264.13;;;5.18;68.68
51468;BME280;37545;45.302;-122.946;2022-12-18T03:46:08;101276.13;;;5.19;68.18
51468;BME280;37545;45.302;-122.946;2022-12-18T03:48:43;101274.38;;;5.18;68.19
51468;BME280;37545;45.302;-122.946;2022-12-18T03:51:16;101278.69;;;5.19;67.99
51468;BME280;37545;45.302;-122.946;2022-12-18T03:53:50;101271.59;;;5.15;68.49
51468;BME280;37545;45.302;-122.946;2022-12-18T03:56:23;101272.25;;;5.11;68.39
51468;BME280;37545;45.302;-122.946;2022-12-18T03:58:55;101274.81;;;5.11;68.86
51468;BME280;37545;45.302;-122.946;2022-12-18T04:01:30;101275.59;;;5.10;68.82
51468;BME280;37545;45.302;-122.946;2022-12-18T04:04:00;101276.41;;;5.09;68.74
51468;BME280;37545;45.302;-122.946;2022-12-18T04:06:30;101278.97;;;5.09;69.16
51468;BME280;37545;45.302;-122.946;2022-12-18T04:08:59;101276.19;;;5.06;68.99
51468;BME280;37545;45.302;-122.946;2022-12-18T04:11:28;101274.31;;;5.03;69.41
51468;BME280;37545;45.302;-122.946;2022-12-18T04:13:59;101273.56;;;5.04;70.64
51468;BME280;37545;45.302;-122.946;2022-12-18T04:16:28;101271.50;;;4.99;71.71
51468;BME280;37545;45.302;-122.946;2022-12-18T04:18:56;101268.47;;;4.91;71.06
51468;BME280;37545;45.302;-122.946;2022-12-18T04:21:25;101261.31;;;4.86;71.58
51468;BME280;37545;45.302;-122.946;2022-12-18T04:23:54;101269.19;;;4.89;72.62
51468;BME280;37545;45.302;-122.946;2022-12-18T04:26:23;101273.59;;;4.91;72.21
51468;BME280;37545;45.302;-122.946;2022-12-18T04:28:51;101266.00;;;4.93;71.45
51468;BME280;37545;45.302;-122.946;2022-12-18T04:31:22;101269.19;;;4.89;71.64
51468;BME280;37545;45.302;-122.946;2022-12-18T04:33:51;101254.28;;;4.83;72.03
51468;BME280;37545;45.302;-122.946;2022-12-18T04:36:20;101255.59;;;4.76;71.56
51468;BME280;37545;45.302;-122.946;2022-12-18T04:38:48;101248.59;;;4.74;73.12
51468;BME280;37545;45.302;-122.946;2022-12-18T04:41:17;101245.44;;;4.78;73.15
51468;BME280;37545;45.302;-122.946;2022-12-18T04:43:46;101250.66;;;4.79;72.27
51468;BME280;37545;45.302;-122.946;2022-12-18T04:46:15;101246.69;;;4.85;72.06
51468;BME280;37545;45.302;-122.946;2022-12-18T04:48:45;101244.31;;;4.88;71.80
51468;BME280;37545;45.302;-122.946;2022-12-18T04:51:15;101242.72;;;4.90;71.14
51468;BME280;37545;45.302;-122.946;2022-12-18T04:53:44;101237.69;;;4.91;72.67
51468;BME280;37545;45.302;-122.946;2022-12-18T04:56:20;101234.88;;;4.87;72.12
51468;BME280;37545;45.302;-122.946;2022-12-18T04:58:49;101227.59;;;4.79;70.92
51468;BME280;37545;45.302;-122.946;2022-12-18T05:01:18;101236.13;;;4.65;71.83
51468;BME280;37545;45.302;-122.946;2022-12-18T05:03:50;101229.66;;;4.57;72.37
51468;BME280;37545;45.302;-122.946;2022-12-18T05:06:19;101236.53;;;4.58;72.88
51468;BME280;37545;45.302;-122.946;2022-12-18T05:08:48;101245.41;;;4.63;73.40
51468;BME280;37545;45.302;-122.946;2022-12-18T05:11:17;101248.84;;;4.64;73.76
51468;BME280;37545;45.302;-122.946;2022-12-18T05:13:46;101248.97;;;4.65;73.52
51468;BME280;37545;45.302;-122.946;2022-12-18T05:16:15;101247.34;;;4.67;73.10
51468;BME280;37545;45.302;-122.946;2022-12-18T05:18:44;101243.19;;;4.69;72.73
51468;BME280;37545;45.302;-122.946;2022-12-18T05:21:14;101235.72;;;4.72;72.74
51468;BME280;37545;45.302;-122.946;2022-12-18T05:23:43;101244.38;;;4.74;72.54
51468;BME280;37545;45.302;-122.946;2022-12-18T05:26:15;101247.03;;;4.76;72.52
51468;BME280;37545;45.302;-122.946;2022-12-18T05:28:45;101249.69;;;4.77;71.87
51468;BME280;37545;45.302;-122.946;2022-12-18T05:31:14;101243.59;;;4.75;72.23
51468;BME280;37545;45.302;-122.946;2022-12-18T05:33:43;101241.03;;;4.75;72.54
51468;BME280;37545;45.302;-122.946;2022-12-18T05:36:14;101242.78;;;4.76;72.43
51468;BME280;37545;45.302;-122.946;2022-12-18T05:38:43;101246.25;;;4.77;72.16
51468;BME280;37545;45.302;-122.946;2022-12-18T05:41:11;101242.97;;;4.79;71.86
51468;BME280;37545;45.302;-122.946;2022-12-18T05:43:41;101248.09;;;4.79;72.64
51468;BME280;37545;45.302;-122.946;2022-12-18T05:46:12;101241.81;;;4.74;72.64
51468;BME280;37545;45.302;-122.946;2022-12-18T05:48:42;101247.28;;;4.66;72.75
51468;BME280;37545;45.302;-122.946;2022-12-18T05:51:13;101240.88;;;4.59;74.72
51468;BME280;37545;45.302;-122.946;2022-12-18T05:53:43;101233.78;;;4.55;78.12
51468;BME280;37545;45.302;-122.946;2022-12-18T05:56:14;101238.16;;;4.56;78.40
51468;BME280;37545;45.302;-122.946;2022-12-18T05:58:43;101232.31;;;4.58;78.77
51468;BME280;37545;45.302;-122.946;2022-12-18T06:01:14;101245.19;;;4.60;78.03
51468;BME280;37545;45.302;-122.946;2022-12-18T06:03:43;101245.19;;;4.60;77.55
51468;BME280;37545;45.302;-122.946;2022-12-18T06:06:18;101243.63;;;4.62;77.45
51468;BME280;37545;45.302;-122.946;2022-12-18T06:08:47;101236.31;;;4.68;77.18
51468;BME280;37545;45.302;-122.946;2022-12-18T06:11:18;101238.19;;;4.71;77.08
51468;BME280;37545;45.302;-122.946;2022-12-18T06:13:49;101233.16;;;4.72;76.58
51468;BME280;37545;45.302;-122.946;2022-12-18T06:16:17;101240.03;;;4.73;78.14
51468;BME280;37545;45.302;-122.946;2022-12-18T06:18:46;101237.31;;;4.70;78.03
51468;BME280;37545;45.302;-122.946;2022-12-18T06:21:16;101239.94;;;4.72;78.86
51468;BME280;37545;45.302;-122.946;2022-12-18T06:23:45;101245.00;;;4.70;78.69
51468;BME280;37545;45.302;-122.946;2022-12-18T06:26:14;101246.69;;;4.70;77.69
51468;BME280;37545;45.302;-122.946;2022-12-18T06:28:43;101242.59;;;4.73;78.19
51468;BME280;37545;45.302;-122.946;2022-12-18T06:31:12;101237.66;;;4.76;79.21
51468;BME280;37545;45.302;-122.946;2022-12-18T06:33:41;101239.59;;;4.80;78.02
51468;BME280;37545;45.302;-122.946;2022-12-18T06:36:11;101242.97;;;4.79;78.81
51468;BME280;37545;45.302;-122.946;2022-12-18T06:38:43;101235.88;;;4.75;78.36
51468;BME280;37545;45.302;-122.946;2022-12-18T06:41:13;101238.56;;;4.77;77.97
51468;BME280;37545;45.302;-122.946;2022-12-18T06:43:42;101240.50;;;4.81;77.64
51468;BME280;37545;45.302;-122.946;2022-12-18T06:46:12;101248.50;;;4.86;77.96
51468;BME280;37545;45.302;-122.946;2022-12-18T06:48:40;101234.88;;;4.87;77.42
51468;BME280;37545;45.302;-122.946;2022-12-18T06:51:10;101229.91;;;4.90;76.43
51468;BME280;37545;45.302;-122.946;2022-12-18T06:53:38;101233.44;;;4.92;76.07
51468;BME280;37545;45.302;-122.946;2022-12-18T06:56:09;101232.56;;;4.91;77.19
51468;BME280;37545;45.302;-122.946;2022-12-18T06:58:38;101246.28;;;4.92;77.39
51468;BME280;37545;45.302;-122.946;2022-12-18T07:01:09;101243.72;;;4.92;76.29
51468;BME280;37545;45.302;-122.946;2022-12-18T07:03:38;101240.38;;;4.93;76.80
51468;BME280;37545;45.302;-122.946;2022-12-18T07:06:13;101245.56;;;4.94;77.10
51468;BME280;37545;45.302;-122.946;2022-12-18T07:08:43;101243.72;;;4.92;78.80
51468;BME280;37545;45.302;-122.946;2022-12-18T07:11:13;101242.13;;;4.94;79.01
51468;BME280;37545;45.302;-122.946;2022-12-18T07:13:43;101245.66;;;4.96;78.08
51468;BME280;37545;45.302;-122.946;2022-12-18T07:16:13;101244.78;;;4.95;77.57
51468;BME280;37545;45.302;-122.946;2022-12-18T07:18:42;101247.34;;;4.95;77.29
51468;BME280;37545;45.302;-122.946;2022-12-18T07:21:13;101255.81;;;4.94;77.70
51468;BME280;37545;45.302;-122.946;2022-12-18T07:23:43;101245.50;;;4.93;78.33
51468;BME280;37545;45.302;-122.946;2022-12-18T07:26:17;101249.03;;;4.95;78.20
51468;BME280;37545;45.302;-122.946;2022-12-18T07:28:47;101250.00;;;4.97;76.77
51468;BME280;37545;45.302;-122.946;2022-12-18T07:31:18;101250.97;;;4.99;76.55
51468;BME280;37545;45.302;-122.946;2022-12-18T07:33:47;101251.94;;;5.01;76.86
51468;BME280;37545;45.302;-122.946;2022-12-18T07:36:16;101245.84;;;4.99;77.12
51468;BME280;37545;45.302;-122.946;2022-12-18T07:38:47;101248.22;;;4.96;76.44
51468;BME280;37545;45.302;-122.946;2022-12-18T07:41:17;101243.22;;;4.97;76.65
51468;BME280;37545;45.302;-122.946;2022-12-18T07:43:46;101241.63;;;4.99;77.45
51468;BME280;37545;45.302;-122.946;2022-12-18T07:46:16;101245.84;;;4.99;78.36
51468;BME280;37545;45.302;-122.946;2022-12-18T07:48:45;101244.19;;;4.99;78.39
51468;BME280;37545;45.302;-122.946;2022-12-18T07:51:13;101246.94;;;5.02;78.10
51468;BME280;37545;45.302;-122.946;2022-12-18T07:53:42;101239.94;;;5.00;78.14
51468;BME280;37545;45.302;-122.946;2022-12-18T07:56:11;101231.88;;;4.94;78.76
51468;BME280;37545;45.302;-122.946;2022-12-18T07:58:42;101236.63;;;4.88;80.84
51468;BME280;37545;45.302;-122.946;2022-12-18T08:01:14;101220.09;;;4.82;80.38
51468;BME280;37545;45.302;-122.946;2022-12-18T08:03:42;101216.38;;;4.77;81.02
51468;BME280;37545;45.302;-122.946;2022-12-18T08:06:11;101223.06;;;4.75;80.17
51468;BME280;37545;45.302;-122.946;2022-12-18T08:08:39;101217.13;;;4.76;80.74
51468;BME280;37545;45.302;-122.946;2022-12-18T08:11:08;101215.56;;;4.78;80.19
51468;BME280;37545;45.302;-122.946;2022-12-18T08:13:37;101216.63;;;4.82;79.73
51468;BME280;37545;45.302;-122.946;2022-12-18T08:16:08;101214.94;;;4.82;79.27
51468;BME280;37545;45.302;-122.946;2022-12-18T08:18:37;101214.34;;;4.87;78.39
51468;BME280;37545;45.302;-122.946;2022-12-18T08:21:09;101214.34;;;4.87;77.58
51468;BME280;37545;45.302;-122.946;2022-12-18T08:23:38;101219.47;;;4.87;77.82
51468;BME280;37545;45.302;-122.946;2022-12-18T08:26:06;101217.72;;;4.86;77.87
51468;BME280;37545;45.302;-122.946;2022-12-18T08:28:35;101222.03;;;4.87;77.98
51468;BME280;37545;45.302;-122.946;2022-12-18T08:31:04;101216.09;;;4.88;78.21
51468;BME280;37545;45.302;-122.946;2022-12-18T08:33:34;101210.19;;;4.89;78.07
51468;BME280;37545;45.302;-122.946;2022-12-18T08:36:04;101211.19;;;4.91;78.47
51468;BME280;37545;45.302;-122.946;2022-12-18T08:38:33;101216.38;;;4.92;77.58
51468;BME280;37545;45.302;-122.946;2022-12-18T08:41:04;101215.59;;;4.93;77.88
51468;BME280;37545;45.302;-122.946;2022-12-18T08:43:33;101210.56;;;4.95;78.25
51468;BME280;37545;45.302;-122.946;2022-12-18T08:46:19;101206.31;;;4.95;77.92
51468;BME280;37545;45.302;-122.946;2022-12-18T08:48:50;101205.44;;;4.95;77.86
51468;BME280;37545;45.302;-122.946;2022-12-18T08:51:19;101204.63;;;4.96;78.06
51468;BME280;37545;45.302;-122.946;2022-12-18T08:53:48;101208.09;;;4.96;78.04
51468;BME280;37545;45.302;-122.946;2022-12-18T08:56:17;101212.44;;;4.97;77.74
51468;BME280;37545;45.302;-122.946;2022-12-18T08:58:45;101204.81;;;4.99;77.73
51468;BME280;37545;45.302;-122.946;2022-12-18T09:01:14;101203.75;;;4.95;78.84
51468;BME280;37545;45.302;-122.946;2022-12-18T09:03:43;101199.34;;;4.93;79.76
51468;BME280;37545;45.302;-122.946;2022-12-18T09:06:19;101194.91;;;4.90;80.63
51468;BME280;37545;45.302;-122.946;2022-12-18T09:08:48;101196.22;;;4.83;81.13
51468;BME280;37545;45.302;-122.946;2022-12-18T09:11:20;101188.16;;;4.77;83.08
51468;BME280;37545;45.302;-122.946;2022-12-18T09:13:49;101183.47;;;4.70;82.69
51468;BME280;37545;45.302;-122.946;2022-12-18T09:16:18;101184.25;;;4.69;83.18
51468;BME280;37545;45.302;-122.946;2022-12-18T09:18:47;101192.22;;;4.74;83.51
51468;BME280;37545;45.302;-122.946;2022-12-18T09:21:19;101190.63;;;4.76;83.81
51468;BME280;37545;45.302;-122.946;2022-12-18T09:23:50;101198.53;;;4.79;82.97
51468;BME280;37545;45.302;-122.946;2022-12-18T09:26:19;101196.03;;;4.80;83.11
51468;BME280;37545;45.302;-122.946;2022-12-18T09:28:47;101197.00;;;4.82;82.43
51468;BME280;37545;45.302;-122.946;2022-12-18T09:31:17;101198.09;;;4.86;83.12
51468;BME280;37545;45.302;-122.946;2022-12-18T09:33:47;101185.00;;;4.81;82.18
51468;BME280;37545;45.302;-122.946;2022-12-18T09:36:18;101191.72;;;4.79;83.81
51468;BME280;37545;45.302;-122.946;2022-12-18T09:38:47;101191.50;;;4.76;84.52
51468;BME280;37545;45.302;-122.946;2022-12-18T09:41:42;101188.16;;;4.77;84.09
51468;BME280;37545;45.302;-122.946;2022-12-18T09:44:20;101182.31;;;4.80;83.48
51468;BME280;37545;45.302;-122.946;2022-12-18T09:46:57;101197.00;;;4.82;84.74
51468;BME280;37545;45.302;-122.946;2022-12-18T09:49:30;101194.53;;;4.84;84.61
51468;BME280;37545;45.302;-122.946;2022-12-18T09:52:04;101193.03;;;4.88;84.38
51468;BME280;37545;45.302;-122.946;2022-12-18T09:54:38;101191.38;;;4.88;84.41
51468;BME280;37545;45.302;-122.946;2022-12-18T09:57:13;101186.25;;;4.88;85.38
51468;BME280;37545;45.302;-122.946;2022-12-18T09:59:46;101180.75;;;4.82;85.16
51468;BME280;37545;45.302;-122.946;2022-12-18T10:02:19;101181.25;;;4.76;85.50
51468;BME280;37545;45.302;-122.946;2022-12-18T10:04:57;101183.63;;;4.73;85.13
51468;BME280;37545;45.302;-122.946;2022-12-18T10:07:33;101181.06;;;4.73;86.49
51468;BME280;37545;45.302;-122.946;2022-12-18T10:10:10;101185.44;;;4.74;86.71
51468;BME280;37545;45.302;-122.946;2022-12-18T10:12:46;101189.91;;;4.78;86.54
51468;BME280;37545;45.302;-122.946;2022-12-18T10:15:24;101185.00;;;4.81;86.18
51468;BME280;37545;45.302;-122.946;2022-12-18T10:18:07;101188.72;;;4.87;85.47
51468;BME280;37545;45.302;-122.946;2022-12-18T10:20:46;101186.25;;;4.88;86.27
51468;BME280;37545;45.302;-122.946;2022-12-18T10:23:24;101194.00;;;4.90;86.71
51468;BME280;37545;45.302;-122.946;2022-12-18T10:25:57;101200.03;;;4.90;86.05
51468;BME280;37545;45.302;-122.946;2022-12-18T10:28:30;101200.94;;;4.91;85.25
51468;BME280;37545;45.302;-122.946;2022-12-18T10:30:59;101199.13;;;4.90;85.14
51468;BME280;37545;45.302;-122.946;2022-12-18T10:33:29;101199.34;;;4.93;85.45
51468;BME280;37545;45.302;-122.946;2022-12-18T10:35:59;101201.09;;;4.94;85.10
51468;BME280;37545;45.302;-122.946;2022-12-18T10:38:32;101190.94;;;4.95;85.24
51468;BME280;37545;45.302;-122.946;2022-12-18T10:41:02;101194.47;;;4.97;85.77
51468;BME280;37545;45.302;-122.946;2022-12-18T10:43:32;101191.81;;;4.96;86.04
51468;BME280;37545;45.302;-122.946;2022-12-18T10:46:19;101193.41;;;4.94;86.06
51468;BME280;37545;45.302;-122.946;2022-12-18T10:48:52;101190.66;;;4.91;86.09
51468;BME280;37545;45.302;-122.946;2022-12-18T10:51:21;101193.41;;;4.94;86.17
51468;BME280;37545;45.302;-122.946;2022-12-18T10:53:56;101200.31;;;4.95;86.12
51468;BME280;37545;45.302;-122.946;2022-12-18T10:56:27;101196.13;;;4.97;85.56
51468;BME280;37545;45.302;-122.946;2022-12-18T10:58:58;101194.56;;;4.99;85.18
51468;BME280;37545;45.302;-122.946;2022-12-18T11:01:27;101191.22;;;5.00;85.46
51468;BME280;37545;45.302;-122.946;2022-12-18T11:04:01;101192.09;;;5.00;84.90
51468;BME280;37545;45.302;-122.946;2022-12-18T11:06:31;101187.06;;;5.02;84.41
51468;BME280;37545;45.302;-122.946;2022-12-18T11:09:02;101190.41;;;5.01;85.07
51468;BME280;37545;45.302;-122.946;2022-12-18T11:11:32;101184.38;;;5.00;84.95
51468;BME280;37545;45.302;-122.946;2022-12-18T11:14:03;101179.00;;;4.96;83.99
51468;BME280;37545;45.302;-122.946;2022-12-18T11:16:36;101180.59;;;4.94;84.95
51468;BME280;37545;45.302;-122.946;2022-12-18T11:19:18;101179.97;;;4.98;86.78
51468;BME280;37545;45.302;-122.946;2022-12-18T11:21:49;101182.72;;;5.01;86.33
51468;BME280;37545;45.302;-122.946;2022-12-18T11:24:27;101181.13;;;5.03;85.47
51468;BME280;37545;45.302;-122.946;2022-12-18T11:26:58;101174.22;;;5.02;85.47
51468;BME280;37545;45.302;-122.946;2022-12-18T11:29:32;101168.75;;;4.96;86.89
51468;BME280;37545;45.302;-122.946;2022-12-18T11:32:32;101169.63;;;4.96;87.75
51468;BME280;37545;45.302;-122.946;2022-12-18T11:35:08;101174.84;;;4.98;88.06
51468;BME280;37545;45.302;-122.946;2022-12-18T11:37:40;101167.94;;;4.97;88.37
51468;BME280;37545;45.302;-122.946;2022-12-18T11:40:15;101169.53;;;4.95;88.62
51468;BME280;37545;45.302;-122.946;2022-12-18T11:42:50;101164.16;;;4.90;88.48
51468;BME280;37545;45.302;-122.946;2022-12-18T11:45:28;101155.47;;;4.88;89.52
51468;BME280;37545;45.302;-122.946;2022-12-18T11:48:01;101155.47;;;4.88;89.81
51468;BME280;37545;45.302;-122.946;2022-12-18T11:50:40;101147.84;;;4.90;89.70
51468;BME280;37545;45.302;-122.946;2022-12-18T11:53:12;101149.81;;;4.94;89.80
51468;BME280;37545;45.302;-122.946;2022-12-18T11:55:50;101149.09;;;4.96;89.30
51468;BME280;37545;45.302;-122.946;2022-12-18T11:58:32;101151.75;;;4.98;89.09
51468;BME280;37545;45.302;-122.946;2022-12-18T12:01:13;101146.63;;;4.98;89.61
51468;BME280;37545;45.302;-122.946;2022-12-18T12:04:05;101137.97;;;4.96;89.39
51468;BME280;37545;45.302;-122.946;2022-12-18T12:06:45;101139.44;;;4.92;89.39
51468;BME280;37545;45.302;-122.946;2022-12-18T12:09:23;101135.94;;;4.90;89.41
51468;BME280;37545;45.302;-122.946;2022-12-18T12:12:05;101138.50;;;4.90;89.84
51468;BME280;37545;45.302;-122.946;2022-12-18T12:14:47;101137.59;;;4.90;89.41
51468;BME280;37545;45.302;-122.946;2022-12-18T12:17:21;101137.53;;;4.88;89.77
51468;BME280;37545;45.302;-122.946;2022-12-18T12:20:08;101135.03;;;4.90;89.56
51468;BME280;37545;45.302;-122.946;2022-12-18T12:22:46;101122.41;;;4.93;89.65
51468;BME280;37545;45.302;-122.946;2022-12-18T12:25:28;101116.56;;;4.95;89.70
51468;BME280;37545;45.302;-122.946;2022-12-18T12:28:10;101114.00;;;4.95;90.29
51468;BME280;37545;45.302;-122.946;2022-12-18T12:30:48;101117.56;;;4.97;90.33
51468;BME280;37545;45.302;-122.946;2022-12-18T12:33:29;101119.41;;;5.00;90.40
51468;BME280;37545;45.302;-122.946;2022-12-18T12:36:09;101122.13;;;5.03;89.77
51468;BME280;37545;45.302;-122.946;2022-12-18T12:38:42;101115.41;;;5.05;89.11
51468;BME280;37545;45.302;-122.946;2022-12-18T12:41:15;101124.19;;;5.09;88.32
51468;BME280;37545;45.302;-122.946;2022-12-18T12:44:02;101114.81;;;5.09;88.70
51468;BME280;37545;45.302;-122.946;2022-12-18T12:46:37;101112.22;;;5.09;88.86
51468;BME280;37545;45.302;-122.946;2022-12-18T12:49:13;101123.47;;;5.11;89.20
51468;BME280;37545;45.302;-122.946;2022-12-18T12:51:44;101117.53;;;5.12;89.58
51468;BME280;37545;45.302;-122.946;2022-12-18T12:54:17;101125.50;;;5.17;89.83